Terminal Aerodrome Forecast
Issued by NWS

Home | Current Version | Previous Version | Text Only | Print | Product List | Glossary Off
Versions: 1 2 3 4 5 6 7 8 9 10 11 12 13 14 15 16 17 18 19 20 21 22 23 24

445
FTUS43 KBIS 251706 AAA
TAFJMS
TAF AMD
KJMS 251706Z 2517/2612 30009KT P6SM VCSH OVC015
     FM252000 30010KT P6SM OVC010
     FM260200 29004KT P6SM -SN BKN020
     FM260900 33016G24KT P6SM BKN010=

USA.gov is the U.S. government's official web portal to all federal, state and local government web resources and services.